sensor_id;sensor_type;location;lat;lon;timestamp;P1;durP1;ratioP1;P2;durP2;ratioP2
40971;SDS011;26701;47.408;19.174;2023-03-03T00:02:25;137.20;;;58.58;;
40971;SDS011;26701;47.408;19.174;2023-03-03T00:04:51;134.90;;;61.10;;
40971;SDS011;26701;47.408;19.174;2023-03-03T00:07:17;132.90;;;57.30;;
40971;SDS011;26701;47.408;19.174;2023-03-03T00:09:47;134.82;;;57.28;;
40971;SDS011;26701;47.408;19.174;2023-03-03T00:14:48;134.20;;;56.70;;
40971;SDS011;26701;47.408;19.174;2023-03-03T00:17:18;130.77;;;59.60;;
40971;SDS011;26701;47.408;19.174;2023-03-03T00:19:47;137.98;;;61.42;;
40971;SDS011;26701;47.408;19.174;2023-03-03T00:22:16;131.32;;;58.95;;
40971;SDS011;26701;47.408;19.174;2023-03-03T00:24:55;119.72;;;54.03;;
40971;SDS011;26701;47.408;19.174;2023-03-03T00:27:29;123.18;;;57.67;;
40971;SDS011;26701;47.408;19.174;2023-03-03T00:29:56;120.07;;;55.28;;
40971;SDS011;26701;47.408;19.174;2023-03-03T00:32:30;123.72;;;57.97;;
40971;SDS011;26701;47.408;19.174;2023-03-03T00:37:53;113.85;;;52.42;;
40971;SDS011;26701;47.408;19.174;2023-03-03T00:40:35;121.20;;;55.28;;
40971;SDS011;26701;47.408;19.174;2023-03-03T00:43:11;125.22;;;52.80;;
40971;SDS011;26701;47.408;19.174;2023-03-03T00:45:53;107.38;;;51.17;;
40971;SDS011;26701;47.408;19.174;2023-03-03T00:48:41;108.20;;;48.05;;
40971;SDS011;26701;47.408;19.174;2023-03-03T00:53:38;105.13;;;47.25;;
40971;SDS011;26701;47.408;19.174;2023-03-03T00:56:05;96.45;;;45.58;;
40971;SDS011;26701;47.408;19.174;2023-03-03T00:58:30;106.47;;;48.85;;
40971;SDS011;26701;47.408;19.174;2023-03-03T01:00:57;99.13;;;48.78;;
40971;SDS011;26701;47.408;19.174;2023-03-03T01:03:30;106.95;;;50.67;;
40971;SDS011;26701;47.408;19.174;2023-03-03T01:05:56;98.70;;;46.00;;
40971;SDS011;26701;47.408;19.174;2023-03-03T01:08:22;107.15;;;47.80;;
40971;SDS011;26701;47.408;19.174;2023-03-03T01:10:49;112.68;;;47.20;;
40971;SDS011;26701;47.408;19.174;2023-03-03T01:13:19;96.00;;;47.03;;
40971;SDS011;26701;47.408;19.174;2023-03-03T01:15:48;94.70;;;44.15;;
40971;SDS011;26701;47.408;19.174;2023-03-03T01:18:15;96.00;;;45.20;;
40971;SDS011;26701;47.408;19.174;2023-03-03T01:20:41;92.70;;;46.40;;
40971;SDS011;26701;47.408;19.174;2023-03-03T01:23:07;94.13;;;42.95;;
40971;SDS011;26701;47.408;19.174;2023-03-03T01:25:33;88.65;;;42.92;;
40971;SDS011;26701;47.408;19.174;2023-03-03T01:27:59;95.22;;;43.45;;
40971;SDS011;26701;47.408;19.174;2023-03-03T01:30:25;104.90;;;43.33;;
40971;SDS011;26701;47.408;19.174;2023-03-03T01:32:51;91.78;;;44.55;;
40971;SDS011;26701;47.408;19.174;2023-03-03T01:35:17;89.45;;;43.50;;
40971;SDS011;26701;47.408;19.174;2023-03-03T01:37:43;86.00;;;40.28;;
40971;SDS011;26701;47.408;19.174;2023-03-03T01:40:13;90.88;;;42.83;;
40971;SDS011;26701;47.408;19.174;2023-03-03T01:42:45;85.70;;;40.10;;
40971;SDS011;26701;47.408;19.174;2023-03-03T01:45:30;82.82;;;38.92;;
40971;SDS011;26701;47.408;19.174;2023-03-03T01:48:39;87.45;;;40.65;;
40971;SDS011;26701;47.408;19.174;2023-03-03T01:51:25;81.07;;;39.45;;
40971;SDS011;26701;47.408;19.174;2023-03-03T01:54:02;105.07;;;41.28;;
40971;SDS011;26701;47.408;19.174;2023-03-03T01:56:37;77.85;;;36.55;;
40971;SDS011;26701;47.408;19.174;2023-03-03T01:59:06;92.43;;;40.88;;
40971;SDS011;26701;47.408;19.174;2023-03-03T02:01:38;104.18;;;47.53;;
40971;SDS011;26701;47.408;19.174;2023-03-03T02:04:05;106.07;;;46.78;;
40971;SDS011;26701;47.408;19.174;2023-03-03T02:06:36;93.22;;;44.10;;
40971;SDS011;26701;47.408;19.174;2023-03-03T02:09:09;95.85;;;44.65;;
40971;SDS011;26701;47.408;19.174;2023-03-03T02:11:56;99.03;;;42.83;;
40971;SDS011;26701;47.408;19.174;2023-03-03T02:14:25;91.05;;;42.35;;
40971;SDS011;26701;47.408;19.174;2023-03-03T02:16:51;94.60;;;41.92;;
40971;SDS011;26701;47.408;19.174;2023-03-03T02:19:30;87.10;;;42.72;;
40971;SDS011;26701;47.408;19.174;2023-03-03T02:22:11;93.55;;;41.00;;
40971;SDS011;26701;47.408;19.174;2023-03-03T02:24:44;86.38;;;41.22;;
40971;SDS011;26701;47.408;19.174;2023-03-03T02:27:16;87.82;;;40.95;;
40971;SDS011;26701;47.408;19.174;2023-03-03T02:29:42;88.65;;;40.20;;
40971;SDS011;26701;47.408;19.174;2023-03-03T02:32:09;82.85;;;39.97;;
40971;SDS011;26701;47.408;19.174;2023-03-03T02:35:19;88.13;;;41.33;;
40971;SDS011;26701;47.408;19.174;2023-03-03T02:37:46;86.63;;;38.05;;
40971;SDS011;26701;47.408;19.174;2023-03-03T02:40:13;77.38;;;38.08;;
40971;SDS011;26701;47.408;19.174;2023-03-03T02:42:39;82.05;;;38.05;;
40971;SDS011;26701;47.408;19.174;2023-03-03T02:45:06;81.38;;;37.75;;
40971;SDS011;26701;47.408;19.174;2023-03-03T02:47:32;80.00;;;39.03;;
40971;SDS011;26701;47.408;19.174;2023-03-03T02:49:58;82.78;;;39.03;;
40971;SDS011;26701;47.408;19.174;2023-03-03T02:52:24;80.05;;;38.97;;
40971;SDS011;26701;47.408;19.174;2023-03-03T02:54:50;81.50;;;39.67;;
40971;SDS011;26701;47.408;19.174;2023-03-03T02:57:16;81.45;;;37.25;;
40971;SDS011;26701;47.408;19.174;2023-03-03T02:59:42;82.50;;;39.08;;
40971;SDS011;26701;47.408;19.174;2023-03-03T03:02:11;75.78;;;38.10;;
40971;SDS011;26701;47.408;19.174;2023-03-03T03:04:37;84.97;;;40.60;;
40971;SDS011;26701;47.408;19.174;2023-03-03T03:07:03;81.32;;;40.50;;
40971;SDS011;26701;47.408;19.174;2023-03-03T03:09:31;73.23;;;36.33;;
40971;SDS011;26701;47.408;19.174;2023-03-03T03:11:58;81.63;;;41.33;;
40971;SDS011;26701;47.408;19.174;2023-03-03T03:14:26;79.22;;;38.10;;
40971;SDS011;26701;47.408;19.174;2023-03-03T03:16:54;91.60;;;38.40;;
40971;SDS011;26701;47.408;19.174;2023-03-03T03:19:19;80.38;;;36.95;;
40971;SDS011;26701;47.408;19.174;2023-03-03T03:21:46;68.03;;;34.90;;
40971;SDS011;26701;47.408;19.174;2023-03-03T03:24:12;73.70;;;38.72;;
40971;SDS011;26701;47.408;19.174;2023-03-03T03:26:42;74.40;;;35.80;;
40971;SDS011;26701;47.408;19.174;2023-03-03T03:29:08;75.05;;;36.38;;
40971;SDS011;26701;47.408;19.174;2023-03-03T03:31:35;75.22;;;37.55;;
40971;SDS011;26701;47.408;19.174;2023-03-03T03:34:02;71.45;;;35.47;;
40971;SDS011;26701;47.408;19.174;2023-03-03T03:36:29;73.13;;;35.05;;
40971;SDS011;26701;47.408;19.174;2023-03-03T03:38:54;73.55;;;35.75;;
40971;SDS011;26701;47.408;19.174;2023-03-03T03:41:21;65.35;;;32.80;;
40971;SDS011;26701;47.408;19.174;2023-03-03T03:43:46;69.00;;;34.35;;
40971;SDS011;26701;47.408;19.174;2023-03-03T03:46:14;69.88;;;34.25;;
40971;SDS011;26701;47.408;19.174;2023-03-03T03:48:40;71.57;;;34.45;;
40971;SDS011;26701;47.408;19.174;2023-03-03T03:51:09;68.47;;;36.22;;
40971;SDS011;26701;47.408;19.174;2023-03-03T03:53:36;68.70;;;33.75;;
40971;SDS011;26701;47.408;19.174;2023-03-03T03:56:02;72.13;;;35.00;;
40971;SDS011;26701;47.408;19.174;2023-03-03T03:58:29;66.28;;;35.20;;
40971;SDS011;26701;47.408;19.174;2023-03-03T04:01:03;74.85;;;34.92;;
40971;SDS011;26701;47.408;19.174;2023-03-03T04:03:32;66.15;;;35.38;;
40971;SDS011;26701;47.408;19.174;2023-03-03T04:05:59;72.65;;;35.15;;
40971;SDS011;26701;47.408;19.174;2023-03-03T04:08:24;75.55;;;35.10;;
40971;SDS011;26701;47.408;19.174;2023-03-03T04:10:51;69.20;;;34.08;;
40971;SDS011;26701;47.408;19.174;2023-03-03T04:13:17;68.75;;;32.97;;
40971;SDS011;26701;47.408;19.174;2023-03-03T04:15:44;69.65;;;34.10;;
40971;SDS011;26701;47.408;19.174;2023-03-03T04:18:10;70.40;;;36.28;;
40971;SDS011;26701;47.408;19.174;2023-03-03T04:20:38;76.45;;;36.30;;
40971;SDS011;26701;47.408;19.174;2023-03-03T04:23:05;76.13;;;37.42;;
40971;SDS011;26701;47.408;19.174;2023-03-03T04:25:31;68.25;;;36.53;;
40971;SDS011;26701;47.408;19.174;2023-03-03T04:27:57;85.53;;;40.70;;
40971;SDS011;26701;47.408;19.174;2023-03-03T04:30:24;76.25;;;37.05;;
40971;SDS011;26701;47.408;19.174;2023-03-03T04:32:53;81.13;;;38.05;;
40971;SDS011;26701;47.408;19.174;2023-03-03T04:35:21;81.20;;;40.33;;
40971;SDS011;26701;47.408;19.174;2023-03-03T04:37:46;83.97;;;40.42;;
40971;SDS011;26701;47.408;19.174;2023-03-03T04:40:14;77.38;;;38.20;;
40971;SDS011;26701;47.408;19.174;2023-03-03T04:42:41;80.07;;;39.72;;
40971;SDS011;26701;47.408;19.174;2023-03-03T04:45:08;82.20;;;40.75;;
40971;SDS011;26701;47.408;19.174;2023-03-03T04:47:35;86.00;;;40.85;;
40971;SDS011;26701;47.408;19.174;2023-03-03T04:50:02;78.15;;;38.53;;
40971;SDS011;26701;47.408;19.174;2023-03-03T04:52:30;86.27;;;39.83;;
40971;SDS011;26701;47.408;19.174;2023-03-03T04:54:56;87.55;;;41.45;;
40971;SDS011;26701;47.408;19.174;2023-03-03T04:57:24;78.95;;;40.58;;
40971;SDS011;26701;47.408;19.174;2023-03-03T04:59:51;80.65;;;40.17;;
40971;SDS011;26701;47.408;19.174;2023-03-03T05:02:17;93.80;;;40.42;;
40971;SDS011;26701;47.408;19.174;2023-03-03T05:04:43;77.43;;;37.50;;
40971;SDS011;26701;47.408;19.174;2023-03-03T05:07:08;80.70;;;40.03;;
40971;SDS011;26701;47.408;19.174;2023-03-03T05:09:35;72.50;;;36.97;;
40971;SDS011;26701;47.408;19.174;2023-03-03T05:12:01;78.95;;;40.35;;
40971;SDS011;26701;47.408;19.174;2023-03-03T05:14:27;91.45;;;41.38;;
40971;SDS011;26701;47.408;19.174;2023-03-03T05:16:53;82.78;;;38.33;;
40971;SDS011;26701;47.408;19.174;2023-03-03T05:19:19;87.45;;;41.30;;
40971;SDS011;26701;47.408;19.174;2023-03-03T05:21:45;79.57;;;41.95;;
40971;SDS011;26701;47.408;19.174;2023-03-03T05:24:11;87.97;;;39.25;;
40971;SDS011;26701;47.408;19.174;2023-03-03T05:26:38;84.45;;;40.22;;
40971;SDS011;26701;47.408;19.174;2023-03-03T05:29:05;81.18;;;39.95;;
40971;SDS011;26701;47.408;19.174;2023-03-03T05:31:31;80.45;;;39.08;;
40971;SDS011;26701;47.408;19.174;2023-03-03T05:33:57;82.35;;;41.22;;
40971;SDS011;26701;47.408;19.174;2023-03-03T05:36:23;73.28;;;38.33;;
40971;SDS011;26701;47.408;19.174;2023-03-03T05:38:49;86.38;;;40.65;;
40971;SDS011;26701;47.408;19.174;2023-03-03T05:41:15;77.45;;;38.42;;
40971;SDS011;26701;47.408;19.174;2023-03-03T05:43:41;83.95;;;39.30;;
40971;SDS011;26701;47.408;19.174;2023-03-03T05:46:07;94.25;;;42.35;;
40971;SDS011;26701;47.408;19.174;2023-03-03T05:48:33;77.32;;;38.83;;
40971;SDS011;26701;47.408;19.174;2023-03-03T05:50:59;75.30;;;36.60;;
40971;SDS011;26701;47.408;19.174;2023-03-03T05:53:26;72.65;;;35.58;;
40971;SDS011;26701;47.408;19.174;2023-03-03T05:55:52;61.67;;;34.17;;
40971;SDS011;26701;47.408;19.174;2023-03-03T05:58:18;68.63;;;34.35;;
40971;SDS011;26701;47.408;19.174;2023-03-03T06:00:44;72.15;;;33.75;;
40971;SDS011;26701;47.408;19.174;2023-03-03T06:03:10;82.32;;;38.80;;
40971;SDS011;26701;47.408;19.174;2023-03-03T06:05:36;74.57;;;36.80;;
40971;SDS011;26701;47.408;19.174;2023-03-03T06:08:02;78.53;;;38.13;;
40971;SDS011;26701;47.408;19.174;2023-03-03T06:10:28;71.63;;;37.00;;
40971;SDS011;26701;47.408;19.174;2023-03-03T06:12:57;66.03;;;33.20;;
40971;SDS011;26701;47.408;19.174;2023-03-03T06:15:23;60.42;;;33.72;;
40971;SDS011;26701;47.408;19.174;2023-03-03T06:17:49;65.30;;;33.97;;
40971;SDS011;26701;47.408;19.174;2023-03-03T06:20:15;67.78;;;34.88;;
40971;SDS011;26701;47.408;19.174;2023-03-03T06:22:41;64.25;;;32.05;;
40971;SDS011;26701;47.408;19.174;2023-03-03T06:25:07;60.42;;;29.48;;
40971;SDS011;26701;47.408;19.174;2023-03-03T06:27:34;59.20;;;27.55;;
40971;SDS011;26701;47.408;19.174;2023-03-03T06:30:00;53.90;;;28.45;;
40971;SDS011;26701;47.408;19.174;2023-03-03T06:32:26;67.10;;;32.25;;
40971;SDS011;26701;47.408;19.174;2023-03-03T06:34:51;80.32;;;34.88;;
40971;SDS011;26701;47.408;19.174;2023-03-03T06:37:17;72.47;;;37.80;;
40971;SDS011;26701;47.408;19.174;2023-03-03T06:39:44;80.07;;;38.40;;
40971;SDS011;26701;47.408;19.174;2023-03-03T06:42:10;72.32;;;38.05;;
40971;SDS011;26701;47.408;19.174;2023-03-03T06:44:36;76.75;;;35.95;;
40971;SDS011;26701;47.408;19.174;2023-03-03T06:47:02;78.68;;;37.20;;
40971;SDS011;26701;47.408;19.174;2023-03-03T06:49:28;71.07;;;34.30;;
40971;SDS011;26701;47.408;19.174;2023-03-03T06:51:54;68.50;;;35.50;;
40971;SDS011;26701;47.408;19.174;2023-03-03T06:54:26;73.43;;;36.65;;
40971;SDS011;26701;47.408;19.174;2023-03-03T06:56:56;73.28;;;38.00;;
40971;SDS011;26701;47.408;19.174;2023-03-03T06:59:25;76.57;;;34.58;;
40971;SDS011;26701;47.408;19.174;2023-03-03T07:01:51;82.68;;;38.42;;
40971;SDS011;26701;47.408;19.174;2023-03-03T07:06:44;71.47;;;33.17;;
40971;SDS011;26701;47.408;19.174;2023-03-03T07:09:16;69.90;;;34.47;;
40971;SDS011;26701;47.408;19.174;2023-03-03T07:11:51;71.75;;;34.08;;
40971;SDS011;26701;47.408;19.174;2023-03-03T07:14:19;74.45;;;36.30;;
40971;SDS011;26701;47.408;19.174;2023-03-03T07:16:46;65.00;;;32.05;;
40971;SDS011;26701;47.408;19.174;2023-03-03T07:19:19;60.65;;;32.22;;
40971;SDS011;26701;47.408;19.174;2023-03-03T07:21:50;67.38;;;33.50;;
40971;SDS011;26701;47.408;19.174;2023-03-03T07:24:29;66.10;;;32.00;;
40971;SDS011;26701;47.408;19.174;2023-03-03T07:29:36;67.45;;;32.50;;
40971;SDS011;26701;47.408;19.174;2023-03-03T07:34:43;68.93;;;30.55;;
40971;SDS011;26701;47.408;19.174;2023-03-03T07:37:15;57.33;;;33.15;;
40971;SDS011;26701;47.408;19.174;2023-03-03T07:39:49;64.10;;;33.10;;
40971;SDS011;26701;47.408;19.174;2023-03-03T07:44:46;64.82;;;32.47;;
40971;SDS011;26701;47.408;19.174;2023-03-03T07:49:49;60.42;;;33.65;;
40971;SDS011;26701;47.408;19.174;2023-03-03T07:52:31;60.15;;;30.95;;
40971;SDS011;26701;47.408;19.174;2023-03-03T07:55:22;55.88;;;30.80;;
40971;SDS011;26701;47.408;19.174;2023-03-03T07:57:50;62.78;;;34.42;;
40971;SDS011;26701;47.408;19.174;2023-03-03T08:03:02;60.60;;;31.13;;
40971;SDS011;26701;47.408;19.174;2023-03-03T08:05:35;61.22;;;31.80;;
40971;SDS011;26701;47.408;19.174;2023-03-03T08:15:41;62.08;;;32.10;;
40971;SDS011;26701;47.408;19.174;2023-03-03T08:18:41;57.72;;;32.40;;
40971;SDS011;26701;47.408;19.174;2023-03-03T08:21:19;61.00;;;31.25;;
40971;SDS011;26701;47.408;19.174;2023-03-03T08:23:45;60.70;;;32.58;;
40971;SDS011;26701;47.408;19.174;2023-03-03T08:26:15;59.22;;;31.42;;
40971;SDS011;26701;47.408;19.174;2023-03-03T08:28:43;64.07;;;32.17;;
40971;SDS011;26701;47.408;19.174;2023-03-03T08:31:09;62.75;;;33.00;;
40971;SDS011;26701;47.408;19.174;2023-03-03T08:33:36;63.60;;;30.25;;
40971;SDS011;26701;47.408;19.174;2023-03-03T08:36:03;77.78;;;46.38;;
40971;SDS011;26701;47.408;19.174;2023-03-03T08:38:32;78.88;;;58.28;;
40971;SDS011;26701;47.408;19.174;2023-03-03T08:40:59;58.63;;;34.13;;
40971;SDS011;26701;47.408;19.174;2023-03-03T08:43:25;54.65;;;26.15;;
40971;SDS011;26701;47.408;19.174;2023-03-03T08:45:52;46.25;;;25.25;;
40971;SDS011;26701;47.408;19.174;2023-03-03T08:50:49;56.78;;;26.38;;
40971;SDS011;26701;47.408;19.174;2023-03-03T08:53:15;49.15;;;26.25;;
40971;SDS011;26701;47.408;19.174;2023-03-03T08:55:42;54.35;;;28.08;;
40971;SDS011;26701;47.408;19.174;2023-03-03T08:58:08;49.10;;;25.27;;
40971;SDS011;26701;47.408;19.174;2023-03-03T09:00:34;49.10;;;27.48;;
40971;SDS011;26701;47.408;19.174;2023-03-03T09:03:00;52.13;;;25.80;;
40971;SDS011;26701;47.408;19.174;2023-03-03T09:05:27;51.40;;;25.35;;
40971;SDS011;26701;47.408;19.174;2023-03-03T09:07:53;50.67;;;25.23;;
40971;SDS011;26701;47.408;19.174;2023-03-03T09:10:21;45.17;;;22.90;;
40971;SDS011;26701;47.408;19.174;2023-03-03T09:12:52;52.33;;;27.88;;
40971;SDS011;26701;47.408;19.174;2023-03-03T09:17:50;49.58;;;26.85;;
40971;SDS011;26701;47.408;19.174;2023-03-03T09:22:59;54.10;;;30.67;;
40971;SDS011;26701;47.408;19.174;2023-03-03T09:28:50;49.53;;;25.90;;
40971;SDS011;26701;47.408;19.174;2023-03-03T09:31:27;51.67;;;27.10;;
40971;SDS011;26701;47.408;19.174;2023-03-03T09:34:21;80.95;;;28.52;;
40971;SDS011;26701;47.408;19.174;2023-03-03T09:36:59;49.17;;;25.52;;
40971;SDS011;26701;47.408;19.174;2023-03-03T09:39:26;57.97;;;29.83;;
40971;SDS011;26701;47.408;19.174;2023-03-03T09:49:51;49.05;;;28.02;;
40971;SDS011;26701;47.408;19.174;2023-03-03T09:52:52;52.92;;;26.25;;
40971;SDS011;26701;47.408;19.174;2023-03-03T10:05:52;45.70;;;24.55;;
40971;SDS011;26701;47.408;19.174;2023-03-03T10:18:46;46.50;;;24.20;;
40971;SDS011;26701;47.408;19.174;2023-03-03T10:21:35;43.42;;;21.88;;
40971;SDS011;26701;47.408;19.174;2023-03-03T10:29:58;40.25;;;20.52;;
40971;SDS011;26701;47.408;19.174;2023-03-03T10:32:34;34.47;;;19.63;;
40971;SDS011;26701;47.408;19.174;2023-03-03T10:35:22;32.92;;;18.77;;
40971;SDS011;26701;47.408;19.174;2023-03-03T10:38:20;37.55;;;20.38;;
40971;SDS011;26701;47.408;19.174;2023-03-03T10:44:08;36.88;;;16.95;;
40971;SDS011;26701;47.408;19.174;2023-03-03T11:05:41;27.60;;;18.20;;
40971;SDS011;26701;47.408;19.174;2023-03-03T11:08:16;35.53;;;20.15;;
40971;SDS011;26701;47.408;19.174;2023-03-03T11:10:50;40.78;;;20.10;;
40971;SDS011;26701;47.408;19.174;2023-03-03T11:26:52;31.05;;;16.85;;
40971;SDS011;26701;47.408;19.174;2023-03-03T11:34:55;28.85;;;14.90;;
40971;SDS011;26701;47.408;19.174;2023-03-03T11:37:51;23.90;;;13.35;;
40971;SDS011;26701;47.408;19.174;2023-03-03T11:40:21;29.05;;;15.05;;
40971;SDS011;26701;47.408;19.174;2023-03-03T11:45:26;35.70;;;13.05;;
40971;SDS011;26701;47.408;19.174;2023-03-03T11:48:00;33.53;;;15.82;;
40971;SDS011;26701;47.408;19.174;2023-03-03T11:55:51;30.98;;;14.52;;
40971;SDS011;26701;47.408;19.174;2023-03-03T11:58:26;29.48;;;14.20;;
40971;SDS011;26701;47.408;19.174;2023-03-03T12:00:58;29.15;;;15.23;;
40971;SDS011;26701;47.408;19.174;2023-03-03T12:06:24;31.10;;;15.05;;
40971;SDS011;26701;47.408;19.174;2023-03-03T12:09:15;25.05;;;13.02;;
40971;SDS011;26701;47.408;19.174;2023-03-03T12:12:05;23.55;;;13.25;;
40971;SDS011;26701;47.408;19.174;2023-03-03T12:17:18;25.33;;;14.00;;
40971;SDS011;26701;47.408;19.174;2023-03-03T12:22:35;27.80;;;17.02;;
40971;SDS011;26701;47.408;19.174;2023-03-03T12:31:28;24.05;;;13.57;;
40971;SDS011;26701;47.408;19.174;2023-03-03T12:41:54;25.23;;;13.52;;
40971;SDS011;26701;47.408;19.174;2023-03-03T12:47:38;22.13;;;14.35;;
40971;SDS011;26701;47.408;19.174;2023-03-03T12:52:42;25.55;;;13.32;;
40971;SDS011;26701;47.408;19.174;2023-03-03T12:58:30;25.90;;;15.48;;
40971;SDS011;26701;47.408;19.174;2023-03-03T13:06:50;26.33;;;14.43;;
40971;SDS011;26701;47.408;19.174;2023-03-03T13:12:10;22.27;;;12.07;;
40971;SDS011;26701;47.408;19.174;2023-03-03T13:17:26;25.52;;;14.88;;
40971;SDS011;26701;47.408;19.174;2023-03-03T13:23:20;22.80;;;14.10;;
40971;SDS011;26701;47.408;19.174;2023-03-03T13:28:31;21.85;;;14.18;;
40971;SDS011;26701;47.408;19.174;2023-03-03T13:31:06;23.40;;;12.93;;
40971;SDS011;26701;47.408;19.174;2023-03-03T13:33:48;23.73;;;13.00;;
40971;SDS011;26701;47.408;19.174;2023-03-03T13:36:18;25.98;;;14.18;;
40971;SDS011;26701;47.408;19.174;2023-03-03T13:38:49;21.27;;;12.13;;
40971;SDS011;26701;47.408;19.174;2023-03-03T13:41:22;25.80;;;16.50;;
40971;SDS011;26701;47.408;19.174;2023-03-03T13:44:10;24.77;;;11.88;;
40971;SDS011;26701;47.408;19.174;2023-03-03T13:52:25;21.05;;;11.82;;
40971;SDS011;26701;47.408;19.174;2023-03-03T13:55:00;23.65;;;13.00;;
40971;SDS011;26701;47.408;19.174;2023-03-03T14:05:50;51.25;;;31.33;;
40971;SDS011;26701;47.408;19.174;2023-03-03T14:08:47;99.90;;;57.95;;
40971;SDS011;26701;47.408;19.174;2023-03-03T14:11:22;84.55;;;48.75;;
40971;SDS011;26701;47.408;19.174;2023-03-03T14:16:51;124.32;;;57.25;;
40971;SDS011;26701;47.408;19.174;2023-03-03T14:19:38;30.73;;;17.13;;
40971;SDS011;26701;47.408;19.174;2023-03-03T14:33:27;23.17;;;12.52;;
40971;SDS011;26701;47.408;19.174;2023-03-03T14:38:44;24.67;;;12.02;;
40971;SDS011;26701;47.408;19.174;2023-03-03T14:46:28;32.30;;;18.02;;
40971;SDS011;26701;47.408;19.174;2023-03-03T14:49:27;27.85;;;14.10;;
40971;SDS011;26701;47.408;19.174;2023-03-03T14:52:19;21.55;;;13.23;;
40971;SDS011;26701;47.408;19.174;2023-03-03T14:54:46;25.65;;;13.43;;
40971;SDS011;26701;47.408;19.174;2023-03-03T14:57:18;22.85;;;12.80;;
40971;SDS011;26701;47.408;19.174;2023-03-03T15:00:05;25.75;;;12.93;;
40971;SDS011;26701;47.408;19.174;2023-03-03T15:05:50;25.90;;;13.20;;
40971;SDS011;26701;47.408;19.174;2023-03-03T15:15:59;21.27;;;13.30;;
40971;SDS011;26701;47.408;19.174;2023-03-03T15:18:28;41.25;;;19.73;;
40971;SDS011;26701;47.408;19.174;2023-03-03T15:21:05;200.70;;;47.10;;
40971;SDS011;26701;47.408;19.174;2023-03-03T15:37:31;34.00;;;17.38;;
40971;SDS011;26701;47.408;19.174;2023-03-03T16:05:11;26.77;;;13.48;;
40971;SDS011;26701;47.408;19.174;2023-03-03T16:10:33;25.25;;;14.43;;
40971;SDS011;26701;47.408;19.174;2023-03-03T16:21:05;25.77;;;13.63;;
40971;SDS011;26701;47.408;19.174;2023-03-03T16:23:52;29.30;;;15.02;;
40971;SDS011;26701;47.408;19.174;2023-03-03T16:32:09;27.27;;;15.85;;
40971;SDS011;26701;47.408;19.174;2023-03-03T16:40:17;34.90;;;18.13;;
40971;SDS011;26701;47.408;19.174;2023-03-03T16:42:48;38.95;;;19.35;;
40971;SDS011;26701;47.408;19.174;2023-03-03T16:45:25;35.17;;;18.70;;
40971;SDS011;26701;47.408;19.174;2023-03-03T16:56:22;33.70;;;16.35;;
40971;SDS011;26701;47.408;19.174;2023-03-03T17:01:38;31.40;;;16.20;;
40971;SDS011;26701;47.408;19.174;2023-03-03T17:10:04;42.05;;;21.65;;
40971;SDS011;26701;47.408;19.174;2023-03-03T17:17:56;30.55;;;17.13;;
40971;SDS011;26701;47.408;19.174;2023-03-03T17:34:11;32.75;;;16.95;;
40971;SDS011;26701;47.408;19.174;2023-03-03T18:03:57;38.95;;;18.67;;
40971;SDS011;26701;47.408;19.174;2023-03-03T18:12:39;51.17;;;23.67;;
40971;SDS011;26701;47.408;19.174;2023-03-03T18:15:41;57.13;;;27.42;;
40971;SDS011;26701;47.408;19.174;2023-03-03T18:23:47;50.60;;;25.95;;
40971;SDS011;26701;47.408;19.174;2023-03-03T18:29:08;46.25;;;26.63;;
40971;SDS011;26701;47.408;19.174;2023-03-03T18:31:48;56.50;;;27.50;;
40971;SDS011;26701;47.408;19.174;2023-03-03T18:36:50;52.47;;;28.35;;
40971;SDS011;26701;47.408;19.174;2023-03-03T18:39:46;58.28;;;30.58;;
40971;SDS011;26701;47.408;19.174;2023-03-03T18:44:50;60.65;;;30.55;;
40971;SDS011;26701;47.408;19.174;2023-03-03T18:47:16;53.28;;;28.25;;
40971;SDS011;26701;47.408;19.174;2023-03-03T18:50:43;62.30;;;30.42;;
40971;SDS011;26701;47.408;19.174;2023-03-03T18:53:06;58.35;;;30.58;;
40971;SDS011;26701;47.408;19.174;2023-03-03T18:55:48;60.30;;;31.48;;
40971;SDS011;26701;47.408;19.174;2023-03-03T19:00:49;61.88;;;30.45;;
40971;SDS011;26701;47.408;19.174;2023-03-03T19:03:53;62.20;;;33.50;;
40971;SDS011;26701;47.408;19.174;2023-03-03T19:08:56;58.50;;;30.50;;
40971;SDS011;26701;47.408;19.174;2023-03-03T19:11:34;60.97;;;31.13;;
40971;SDS011;26701;47.408;19.174;2023-03-03T19:16:44;71.63;;;32.60;;
40971;SDS011;26701;47.408;19.174;2023-03-03T19:19:17;68.30;;;33.25;;
40971;SDS011;26701;47.408;19.174;2023-03-03T19:21:47;69.78;;;33.10;;
40971;SDS011;26701;47.408;19.174;2023-03-03T19:32:00;68.57;;;34.78;;
40971;SDS011;26701;47.408;19.174;2023-03-03T20:07:17;88.80;;;44.15;;
40971;SDS011;26701;47.408;19.174;2023-03-03T20:09:59;91.57;;;46.63;;
40971;SDS011;26701;47.408;19.174;2023-03-03T20:21:18;116.30;;;51.78;;
40971;SDS011;26701;47.408;19.174;2023-03-03T20:42:36;107.25;;;49.65;;
40971;SDS011;26701;47.408;19.174;2023-03-03T20:50:34;108.95;;;51.28;;
40971;SDS011;26701;47.408;19.174;2023-03-03T21:01:42;118.75;;;53.47;;
40971;SDS011;26701;47.408;19.174;2023-03-03T21:04:18;125.25;;;59.00;;
40971;SDS011;26701;47.408;19.174;2023-03-03T21:06:52;120.53;;;59.58;;
40971;SDS011;26701;47.408;19.174;2023-03-03T21:09:25;107.20;;;50.17;;
40971;SDS011;26701;47.408;19.174;2023-03-03T21:11:53;110.22;;;52.40;;
40971;SDS011;26701;47.408;19.174;2023-03-03T21:14:29;139.63;;;58.65;;
40971;SDS011;26701;47.408;19.174;2023-03-03T21:16:58;132.23;;;58.35;;
40971;SDS011;26701;47.408;19.174;2023-03-03T21:19:30;120.70;;;55.05;;
40971;SDS011;26701;47.408;19.174;2023-03-03T21:21:58;114.80;;;52.05;;
40971;SDS011;26701;47.408;19.174;2023-03-03T21:24:46;120.30;;;52.65;;
40971;SDS011;26701;47.408;19.174;2023-03-03T21:27:22;109.25;;;49.38;;
40971;SDS011;26701;47.408;19.174;2023-03-03T21:30:06;127.38;;;58.72;;
40971;SDS011;26701;47.408;19.174;2023-03-03T21:32:44;124.75;;;54.78;;
40971;SDS011;26701;47.408;19.174;2023-03-03T21:35:19;115.38;;;53.22;;
40971;SDS011;26701;47.408;19.174;2023-03-03T21:37:55;113.40;;;54.47;;
40971;SDS011;26701;47.408;19.174;2023-03-03T21:40:22;117.90;;;51.17;;
40971;SDS011;26701;47.408;19.174;2023-03-03T21:42:53;100.85;;;50.63;;
40971;SDS011;26701;47.408;19.174;2023-03-03T21:45:20;110.25;;;50.42;;
40971;SDS011;26701;47.408;19.174;2023-03-03T21:47:48;103.82;;;47.72;;
40971;SDS011;26701;47.408;19.174;2023-03-03T21:50:15;117.35;;;52.40;;
40971;SDS011;26701;47.408;19.174;2023-03-03T21:52:41;113.25;;;53.92;;
40971;SDS011;26701;47.408;19.174;2023-03-03T21:55:07;116.43;;;54.40;;
40971;SDS011;26701;47.408;19.174;2023-03-03T21:57:34;126.70;;;60.10;;
40971;SDS011;26701;47.408;19.174;2023-03-03T22:00:00;140.32;;;62.60;;
40971;SDS011;26701;47.408;19.174;2023-03-03T22:02:26;166.15;;;66.32;;
40971;SDS011;26701;47.408;19.174;2023-03-03T22:04:52;137.85;;;65.00;;
40971;SDS011;26701;47.408;19.174;2023-03-03T22:07:18;135.77;;;60.72;;